Time;durP1;ratioP1;P1;durP2;ratioP2;P2;SDS_P1;SDS_P2;PMS_P1;PMS_P2;Temp;Humidity;BMP_temperature;BMP_pressure;BME280_temperature;BME280_humidity;BME280_pressure;Samples;Min_cycle;Max_cycle;Signal;HPM_P1;HPM_P2
2021/12/04 00:01:51;;;;;;;7.00;3.80;;;3.70;99.90;;;;;;5062163;28;20095;-75
2021/12/04 00:04:25;;;;;;;6.93;4.10;;;3.70;99.90;;;;;;5064258;28;20040;-77
2021/12/04 00:06:51;;;;;;;6.00;3.58;;;3.70;99.90;;;;;;4961010;28;20035;-77
2021/12/04 00:09:18;;;;;;;7.55;3.83;;;3.80;99.90;;;;;;4944582;29;20121;-76
2021/12/04 00:11:53;;;;;;;7.53;3.88;;;3.80;99.90;;;;;;4962874;29;20031;-77
2021/12/04 00:14:19;;;;;;;6.70;3.60;;;3.70;99.90;;;;;;4947143;29;20258;-79
2021/12/04 00:16:46;;;;;;;7.38;3.63;;;3.80;99.90;;;;;;4962226;28;20237;-76
2021/12/04 00:19:12;;;;;;;6.93;4.13;;;3.80;99.90;;;;;;4964201;28;20039;-77
2021/12/04 00:21:38;;;;;;;8.90;4.28;;;3.80;99.90;;;;;;4947220;29;20364;-79
2021/12/04 00:24:04;;;;;;;6.95;4.32;;;3.80;99.90;;;;;;4963162;28;20022;-78
2021/12/04 00:26:30;;;;;;;6.93;4.03;;;3.70;99.90;;;;;;4964184;28;20039;-78
2021/12/04 00:28:56;;;;;;;8.05;4.55;;;3.80;99.90;;;;;;4962932;29;20023;-75
2021/12/04 00:31:22;;;;;;;8.75;4.97;;;3.80;99.90;;;;;;4961079;29;20276;-75
2021/12/04 00:33:49;;;;;;;7.60;4.28;;;3.70;99.90;;;;;;4973828;28;20042;-76
2021/12/04 00:49:47;;;;;;;7.78;3.88;;;3.70;99.90;;;;;;4962960;28;20031;-76
2021/12/04 00:52:13;;;;;;;7.35;4.30;;;3.70;99.90;;;;;;4952751;29;20039;-75
2021/12/04 00:54:39;;;;;;;10.18;4.78;;;3.80;99.90;;;;;;4972054;28;20061;-76
2021/12/04 00:57:05;;;;;;;9.40;4.35;;;3.80;99.90;;;;;;4983541;28;20065;-75
2021/12/04 00:59:31;;;;;;;8.48;4.50;;;3.80;99.90;;;;;;5050744;28;20032;-78
2021/12/04 01:01:57;;;;;;;7.60;4.10;;;3.90;99.90;;;;;;4984003;28;20342;-77
2021/12/04 01:04:23;;;;;;;7.18;4.38;;;3.90;99.90;;;;;;4960462;28;20026;-78
2021/12/04 01:06:50;;;;;;;9.02;4.90;;;3.80;99.90;;;;;;4962192;29;20035;-76
2021/12/04 01:09:17;;;;;;;9.18;4.80;;;3.90;99.90;;;;;;4981407;28;20232;-75
2021/12/04 01:11:44;;;;;;;8.73;4.60;;;3.90;99.90;;;;;;4982578;28;20106;-78
2021/12/04 01:14:12;;;;;;;7.43;4.40;;;3.90;99.90;;;;;;4981375;28;20027;-77
2021/12/04 01:16:38;;;;;;;4.87;3.33;;;3.80;99.90;;;;;;4976796;28;20118;-78
2021/12/04 01:19:04;;;;;;;7.45;4.32;;;3.80;99.90;;;;;;4961148;28;20535;-76
2021/12/04 01:21:30;;;;;;;7.78;4.10;;;3.80;99.90;;;;;;4981553;28;20058;-77
2021/12/04 01:23:56;;;;;;;6.47;3.95;;;3.90;99.90;;;;;;4982591;28;20059;-80
2021/12/04 01:26:23;;;;;;;6.90;3.58;;;3.90;99.90;;;;;;4974595;28;20035;-76
2021/12/04 01:28:49;;;;;;;6.80;3.45;;;3.90;99.90;;;;;;4962296;29;20129;-77
2021/12/04 01:31:15;;;;;;;7.63;3.50;;;3.80;99.90;;;;;;4961074;29;20061;-77
2021/12/04 01:33:41;;;;;;;5.57;3.72;;;3.80;99.90;;;;;;4970083;28;20047;-78
2021/12/04 01:36:09;;;;;;;9.05;3.92;;;3.80;99.90;;;;;;4962879;28;20072;-78
2021/12/04 01:38:35;;;;;;;6.10;3.33;;;3.80;99.90;;;;;;4961827;29;20027;-76
2021/12/04 01:41:01;;;;;;;6.65;3.58;;;3.80;99.90;;;;;;4965737;28;20097;-78
2021/12/04 01:43:27;;;;;;;6.43;3.47;;;3.80;99.90;;;;;;4981039;28;20023;-76
2021/12/04 01:45:54;;;;;;;7.60;3.60;;;3.70;99.90;;;;;;4976879;28;20044;-77
2021/12/04 01:48:20;;;;;;;7.13;4.28;;;3.60;99.90;;;;;;4970021;28;20186;-77
2021/12/04 01:50:46;;;;;;;8.50;3.63;;;3.50;99.90;;;;;;4982207;28;20038;-79
2021/12/04 01:53:11;;;;;;;6.60;3.33;;;3.50;99.90;;;;;;4980439;28;20031;-77
2021/12/04 01:55:38;;;;;;;6.85;3.70;;;3.50;99.90;;;;;;4981120;28;20035;-77
2021/12/04 01:58:05;;;;;;;6.72;3.25;;;3.50;99.90;;;;;;4979057;28;20106;-79
2021/12/04 02:00:34;;;;;;;8.05;3.88;;;3.50;99.90;;;;;;4977319;28;20237;-78
2021/12/04 02:03:02;;;;;;;4.63;2.25;;;3.60;99.90;;;;;;4961177;29;20077;-77
2021/12/04 02:05:28;;;;;;;4.28;2.40;;;3.60;99.90;;;;;;4964810;28;20031;-78
2021/12/04 02:07:54;;;;;;;5.18;3.00;;;3.60;99.90;;;;;;4981807;28;20307;-77
2021/12/04 02:10:19;;;;;;;4.35;2.38;;;3.70;99.90;;;;;;4980177;28;20361;-77
2021/12/04 02:12:46;;;;;;;5.53;2.92;;;3.70;99.90;;;;;;4964550;28;20041;-77
2021/12/04 02:15:14;;;;;;;4.90;3.20;;;3.60;99.90;;;;;;4964266;28;20027;-76
2021/12/04 02:17:40;;;;;;;4.60;2.92;;;3.50;99.90;;;;;;4980311;28;20030;-77
2021/12/04 02:20:11;;;;;;;5.93;3.10;;;3.40;99.90;;;;;;4964213;28;20065;-78
2021/12/04 02:22:37;;;;;;;5.68;3.28;;;3.40;99.90;;;;;;4964449;28;20042;-80
2021/12/04 02:25:04;;;;;;;6.15;3.25;;;3.40;99.90;;;;;;4980138;28;20019;-77
2021/12/04 02:27:30;;;;;;;6.13;3.10;;;3.30;99.90;;;;;;4962975;28;20056;-76
2021/12/04 02:29:56;;;;;;;6.15;3.08;;;3.30;99.90;;;;;;4979942;28;20026;-76
2021/12/04 02:32:22;;;;;;;7.32;3.13;;;3.40;99.90;;;;;;4980823;28;20041;-76
2021/12/04 02:34:47;;;;;;;7.18;3.50;;;3.30;99.90;;;;;;4981606;28;20041;-77
2021/12/04 02:37:13;;;;;;;5.57;2.90;;;3.20;99.90;;;;;;4981193;28;20255;-80
2021/12/04 02:39:44;;;;;;;5.68;2.83;;;3.10;99.90;;;;;;4981764;28;20068;-77
2021/12/04 02:42:21;;;;;;;5.47;2.83;;;3.20;99.90;;;;;;4979928;28;20201;-78
2021/12/04 02:44:48;;;;;;;6.97;3.30;;;3.10;99.90;;;;;;4980355;28;20102;-78
2021/12/04 02:47:14;;;;;;;6.03;3.00;;;3.10;99.90;;;;;;4980842;28;20094;-76
2021/12/04 02:49:40;;;;;;;5.78;3.45;;;3.20;99.90;;;;;;4964290;28;20039;-79
2021/12/04 02:52:08;;;;;;;7.10;3.20;;;3.10;99.90;;;;;;4980276;28;20099;-76
2021/12/04 02:54:35;;;;;;;6.95;3.53;;;3.20;99.90;;;;;;4964006;28;20217;-78
2021/12/04 02:57:03;;;;;;;6.07;3.42;;;3.20;99.90;;;;;;4954870;28;20035;-77
2021/12/04 02:59:29;;;;;;;7.13;3.50;;;3.20;99.90;;;;;;4960539;29;20094;-75
2021/12/04 03:01:57;;;;;;;6.82;3.72;;;3.20;99.90;;;;;;4944793;29;20039;-75
2021/12/04 03:04:25;;;;;;;8.00;4.25;;;3.20;99.90;;;;;;4944589;29;20015;-77
2021/12/04 03:06:51;;;;;;;7.60;3.97;;;3.20;99.90;;;;;;4961668;28;20260;-76
2021/12/04 03:09:17;;;;;;;6.65;4.03;;;3.20;99.90;;;;;;4958028;28;20043;-81
2021/12/04 03:11:44;;;;;;;6.95;3.95;;;3.20;99.90;;;;;;4980361;28;20438;-78
2021/12/04 03:14:10;;;;;;;6.18;3.70;;;3.20;99.90;;;;;;4962919;28;20320;-77
2021/12/04 03:16:38;;;;;;;6.00;3.90;;;3.20;99.90;;;;;;4981297;28;20144;-80
2021/12/04 03:19:04;;;;;;;7.23;4.30;;;3.30;99.90;;;;;;4979154;28;20046;-76
2021/12/04 03:21:32;;;;;;;6.60;4.25;;;3.30;99.90;;;;;;4979589;28;20302;-77
2021/12/04 03:24:04;;;;;;;7.85;4.70;;;3.30;99.90;;;;;;4980474;28;20046;-79
2021/12/04 03:26:29;;;;;;;9.15;4.25;;;3.20;99.90;;;;;;4975762;28;20110;-77
2021/12/04 03:28:56;;;;;;;8.63;5.03;;;3.30;99.90;;;;;;4961547;28;20066;-78
2021/12/04 03:31:41;;;;;;;7.28;4.35;;;3.30;99.90;;;;;;4960889;29;20067;-79
2021/12/04 03:42:21;;;;;;;10.25;5.45;;;3.30;99.90;;;;;;4979695;28;20122;-76
2021/12/04 03:44:48;;;;;;;10.02;5.60;;;3.30;99.90;;;;;;4979360;28;20031;-76
2021/12/04 03:47:14;;;;;;;8.30;5.15;;;3.30;99.90;;;;;;4971804;28;20053;-77
2021/12/04 03:49:40;;;;;;;8.60;5.47;;;3.30;99.90;;;;;;4958039;28;20333;-77
2021/12/04 03:52:07;;;;;;;10.57;6.15;;;3.20;99.90;;;;;;4959396;29;20167;-77
2021/12/04 03:54:34;;;;;;;9.18;5.97;;;3.20;99.90;;;;;;4978475;28;20031;-76
2021/12/04 03:57:03;;;;;;;11.40;6.63;;;3.20;99.90;;;;;;4973468;28;20081;-77
2021/12/04 03:59:37;;;;;;;12.18;6.32;;;3.10;99.90;;;;;;4961143;28;20035;-76
2021/12/04 04:02:05;;;;;;;11.32;7.07;;;3.10;99.90;;;;;;4960605;29;20031;-75
2021/12/04 04:04:32;;;;;;;11.32;6.75;;;3.10;99.90;;;;;;4959740;28;20207;-75
2021/12/04 04:06:59;;;;;;;12.07;7.15;;;3.10;99.90;;;;;;4980435;28;20078;-77
2021/12/04 04:09:25;;;;;;;14.90;6.95;;;3.10;99.90;;;;;;4979411;28;20039;-75
2021/12/04 04:11:51;;;;;;;11.75;7.25;;;3.10;99.90;;;;;;4980020;28;20199;-77
2021/12/04 04:14:17;;;;;;;12.68;7.15;;;3.10;99.90;;;;;;4978599;28;20107;-76
2021/12/04 04:16:43;;;;;;;14.25;7.50;;;3.10;99.90;;;;;;4975173;28;20026;-77
2021/12/04 04:19:10;;;;;;;11.80;7.00;;;3.00;99.90;;;;;;4958115;28;20031;-76
2021/12/04 04:21:41;;;;;;;12.38;6.90;;;2.90;99.90;;;;;;4960899;28;20027;-75
2021/12/04 04:24:14;;;;;;;11.38;7.20;;;3.00;99.90;;;;;;4964592;28;20088;-75
2021/12/04 04:26:44;;;;;;;12.80;7.13;;;2.90;99.90;;;;;;4985888;28;20031;-76
2021/12/04 04:29:10;;;;;;;12.57;7.78;;;3.00;99.90;;;;;;4992140;28;20035;-76
2021/12/04 04:31:45;;;;;;;12.73;7.80;;;2.90;99.90;;;;;;5060295;28;20074;-77
2021/12/04 04:34:11;;;;;;;12.57;7.53;;;2.90;99.90;;;;;;4997131;28;20028;-77
2021/12/04 05:13:40;;;;;;;11.95;6.97;;;3.00;99.90;;;;;;4982303;28;20026;-76
2021/12/04 05:16:14;;;;;;;12.10;6.53;;;3.00;99.90;;;;;;4965242;28;20037;-75
2021/12/04 05:18:58;;;;;;;10.23;6.53;;;3.10;99.90;;;;;;4981903;28;20054;-76
2021/12/04 05:21:24;;;;;;;10.52;5.68;;;3.00;99.90;;;;;;4981323;28;20279;-76
2021/12/04 05:23:55;;;;;;;14.95;6.90;;;3.10;99.90;;;;;;4981912;28;20221;-77
2021/12/04 05:26:26;;;;;;;10.27;6.05;;;3.10;99.90;;;;;;4981235;28;20037;-79
2021/12/04 05:28:54;;;;;;;11.70;6.25;;;3.10;99.90;;;;;;4964593;28;20098;-75
2021/12/04 05:31:20;;;;;;;10.70;6.00;;;3.10;99.90;;;;;;4962833;28;20050;-76
2021/12/04 05:33:47;;;;;;;9.60;5.60;;;3.10;99.90;;;;;;4973304;28;20027;-76
2021/12/04 05:36:14;;;;;;;9.60;6.10;;;3.10;99.90;;;;;;4981703;28;20035;-76
2021/12/04 05:38:40;;;;;;;11.02;5.90;;;3.10;99.90;;;;;;4981577;28;20023;-76
2021/12/04 05:41:07;;;;;;;8.77;5.22;;;3.20;99.90;;;;;;4981974;28;20038;-79
2021/12/04 05:43:34;;;;;;;11.77;6.05;;;3.20;99.90;;;;;;4981060;28;20041;-78
2021/12/04 05:46:13;;;;;;;9.43;5.43;;;3.20;99.90;;;;;;4981267;28;20039;-78
2021/12/04 05:49:02;;;;;;;9.13;5.38;;;3.20;99.90;;;;;;4982239;28;20038;-78
2021/12/04 05:54:31;;;;;;;9.63;4.90;;;3.30;99.90;;;;;;4980403;28;20272;-77
2021/12/04 05:56:58;;;;;;;8.38;5.10;;;3.40;99.90;;;;;;4980882;28;20313;-76
2021/12/04 05:59:24;;;;;;;7.57;4.47;;;3.40;99.90;;;;;;4980476;28;20043;-77
2021/12/04 06:01:50;;;;;;;7.47;4.78;;;3.40;99.90;;;;;;4979648;28;20246;-76
2021/12/04 06:04:17;;;;;;;8.02;4.80;;;3.40;99.90;;;;;;4981327;28;20042;-76
2021/12/04 06:06:44;;;;;;;9.40;4.43;;;3.40;99.90;;;;;;4979867;28;20074;-76
2021/12/04 06:09:10;;;;;;;10.60;4.88;;;3.40;99.90;;;;;;4980797;28;20077;-78
2021/12/04 06:11:36;;;;;;;8.75;4.57;;;3.40;99.90;;;;;;4981713;28;20081;-76
2021/12/04 06:14:03;;;;;;;7.88;4.55;;;3.50;99.90;;;;;;4963005;28;20034;-78
2021/12/04 06:16:30;;;;;;;7.93;4.70;;;3.50;99.90;;;;;;4973573;28;20087;-77
2021/12/04 06:18:58;;;;;;;7.55;4.30;;;3.50;99.90;;;;;;4968827;28;20033;-75
2021/12/04 06:24:08;;;;;;;8.65;4.65;;;3.50;99.90;;;;;;4981534;28;20026;-77
2021/12/04 06:26:36;;;;;;;8.75;4.78;;;3.50;99.90;;;;;;4980164;28;20035;-75
2021/12/04 06:29:03;;;;;;;8.63;4.70;;;3.50;99.90;;;;;;4979402;28;20023;-76
2021/12/04 06:31:30;;;;;;;8.90;4.85;;;3.60;99.90;;;;;;4979459;28;20081;-76
2021/12/04 06:33:56;;;;;;;8.45;4.20;;;3.60;99.90;;;;;;4981129;28;20102;-76
2021/12/04 06:36:22;;;;;;;7.43;4.43;;;3.60;99.90;;;;;;4968626;28;20047;-77
2021/12/04 06:38:48;;;;;;;6.50;4.03;;;3.70;99.90;;;;;;4960893;28;20031;-76
2021/12/04 06:41:14;;;;;;;7.13;4.03;;;3.80;99.90;;;;;;4981059;28;20371;-76
2021/12/04 06:43:46;;;;;;;8.82;4.28;;;3.80;99.90;;;;;;4960888;29;20027;-77
2021/12/04 06:46:12;;;;;;;8.70;4.22;;;3.70;99.90;;;;;;4961318;28;20046;-77
2021/12/04 06:49:23;;;;;;;7.38;4.32;;;3.80;99.90;;;;;;4961249;28;20030;-75
2021/12/04 06:51:33;;;;;;;7.50;3.83;;;3.80;99.90;;;;;;4953999;28;20058;-75
2021/12/04 06:54:06;;;;;;;7.80;4.25;;;3.80;99.90;;;;;;4960591;29;20377;-76
2021/12/04 06:56:37;;;;;;;8.00;3.83;;;3.80;99.90;;;;;;4977493;28;20035;-78
2021/12/04 06:59:09;;;;;;;10.65;4.13;;;3.90;99.90;;;;;;4964558;28;20032;-76
2021/12/04 07:01:36;;;;;;;7.85;4.13;;;3.90;99.90;;;;;;4960031;28;20225;-76
2021/12/04 07:04:02;;;;;;;6.68;3.92;;;3.90;99.90;;;;;;4973629;28;20023;-78
2021/12/04 07:06:28;;;;;;;8.75;3.60;;;4.00;99.90;;;;;;4980812;28;20058;-77
2021/12/04 07:08:56;;;;;;;7.05;4.20;;;4.00;99.90;;;;;;4981057;28;20317;-75
2021/12/04 07:11:22;;;;;;;8.02;3.50;;;4.10;99.90;;;;;;4979276;28;20038;-78
2021/12/04 07:13:48;;;;;;;6.93;3.35;;;4.10;99.90;;;;;;4980759;28;20089;-78
2021/12/04 07:16:16;;;;;;;9.75;4.13;;;4.10;99.90;;;;;;4980057;28;20063;-79
2021/12/04 07:18:42;;;;;;;;;;;4.20;99.90;;;;;;4980485;28;20050;-75
2021/12/04 07:21:08;;;;;;;5.63;3.33;;;4.20;99.90;;;;;;4979919;28;19952;-77
2021/12/04 07:23:34;;;;;;;7.25;3.35;;;4.20;99.90;;;;;;4980728;28;20023;-77
2021/12/04 07:26:00;;;;;;;5.25;2.92;;;4.20;99.90;;;;;;4981571;28;20038;-77
2021/12/04 07:28:26;;;;;;;7.78;3.85;;;4.20;99.90;;;;;;4978432;28;20096;-75
2021/12/04 07:30:52;;;;;;;5.57;3.55;;;4.20;99.90;;;;;;4980368;28;20054;-78
2021/12/04 07:33:18;;;;;;;6.45;3.28;;;4.30;99.90;;;;;;4980400;28;20035;-76
2021/12/04 07:35:44;;;;;;;7.68;3.15;;;4.30;99.90;;;;;;4963051;28;20096;-76
2021/12/04 07:38:10;;;;;;;6.90;3.55;;;4.30;99.90;;;;;;4979714;28;20039;-78
2021/12/04 07:40:38;;;;;;;6.47;3.42;;;4.40;99.90;;;;;;4979235;28;20043;-75
2021/12/04 07:43:04;;;;;;;5.85;3.30;;;4.40;99.90;;;;;;4982306;28;20097;-75
2021/12/04 07:45:30;;;;;;;5.38;2.97;;;4.50;99.90;;;;;;4969871;28;20042;-77
2021/12/04 07:47:56;;;;;;;7.00;3.80;;;4.50;99.90;;;;;;4961126;28;20085;-75
2021/12/04 07:50:22;;;;;;;7.65;3.85;;;4.50;99.90;;;;;;4961399;28;20218;-75
2021/12/04 07:52:49;;;;;;;6.97;3.70;;;4.60;99.90;;;;;;4967637;28;20061;-74
2021/12/04 07:55:15;;;;;;;9.15;3.90;;;4.70;99.90;;;;;;4962327;28;20034;-76
2021/12/04 07:57:41;;;;;;;9.43;3.85;;;4.70;99.90;;;;;;4959861;28;20190;-79
2021/12/04 08:00:12;;;;;;;5.38;3.50;;;4.70;99.90;;;;;;4979907;28;20088;-75
2021/12/04 08:02:40;;;;;;;8.07;3.67;;;4.80;99.90;;;;;;4980110;28;20033;-76
2021/12/04 08:05:07;;;;;;;7.10;3.80;;;4.90;99.90;;;;;;4979355;28;20101;-76
2021/12/04 08:07:33;;;;;;;5.95;3.30;;;4.90;99.90;;;;;;4979985;28;20034;-78
2021/12/04 08:09:58;;;;;;;6.35;3.30;;;5.00;99.90;;;;;;4980123;28;20327;-75
2021/12/04 08:12:24;;;;;;;8.18;3.60;;;5.00;99.90;;;;;;4979014;28;20033;-76
2021/12/04 08:14:54;;;;;;;7.47;3.83;;;5.00;99.90;;;;;;4979890;28;20023;-77
2021/12/04 08:17:24;;;;;;;7.50;4.15;;;5.10;99.90;;;;;;4979005;28;20045;-75
2021/12/04 08:19:50;;;;;;;6.70;3.80;;;5.10;99.90;;;;;;4980617;28;20043;-77
2021/12/04 08:22:16;;;;;;;6.70;3.58;;;5.10;99.90;;;;;;4975926;28;20264;-76
2021/12/04 08:24:45;;;;;;;5.30;3.28;;;5.10;99.90;;;;;;4962203;28;20313;-75
2021/12/04 08:27:12;;;;;;;7.18;4.00;;;5.20;99.90;;;;;;4979187;28;20033;-76
2021/12/04 08:29:38;;;;;;;6.82;3.95;;;5.20;99.90;;;;;;4978212;28;20089;-77
2021/12/04 08:32:04;;;;;;;7.22;3.70;;;5.30;99.90;;;;;;4982371;28;20050;-76
2021/12/04 08:34:30;;;;;;;10.52;3.60;;;5.30;99.90;;;;;;4983206;28;20324;-75
2021/12/04 08:36:56;;;;;;;6.60;3.78;;;5.40;99.90;;;;;;4982537;28;20038;-78
2021/12/04 08:39:22;;;;;;;6.57;3.58;;;5.50;99.90;;;;;;4982364;28;20043;-78
2021/12/04 08:41:48;;;;;;;9.07;4.00;;;5.50;99.90;;;;;;4982435;28;20228;-78
2021/12/04 08:44:16;;;;;;;7.90;4.18;;;5.50;99.90;;;;;;4983770;28;20034;-79
2021/12/04 08:46:42;;;;;;;7.57;3.90;;;5.60;99.90;;;;;;4982734;28;20042;-78
2021/12/04 08:49:08;;;;;;;8.07;4.10;;;5.70;99.90;;;;;;4982078;28;20092;-79
2021/12/04 08:51:35;;;;;;;12.63;4.57;;;5.80;99.90;;;;;;4983284;28;20030;-77
2021/12/04 08:54:02;;;;;;;6.22;3.67;;;5.80;99.90;;;;;;4983249;28;20030;-77
2021/12/04 08:56:28;;;;;;;6.07;3.45;;;5.80;99.90;;;;;;4982450;28;20042;-76
2021/12/04 08:58:54;;;;;;;5.88;3.33;;;5.80;99.90;;;;;;4969640;28;20269;-78
2021/12/04 09:01:25;;;;;;;8.02;2.75;;;5.90;99.90;;;;;;4985194;28;20054;-76
2021/12/04 09:03:57;;;;;;;6.10;3.42;;;6.00;99.90;;;;;;4984007;28;20038;-77
2021/12/04 09:06:23;;;;;;;8.88;3.75;;;6.00;99.90;;;;;;4982231;28;20090;-77
2021/12/04 09:08:49;;;;;;;4.90;3.15;;;6.10;99.90;;;;;;4983108;28;20096;-77
2021/12/04 09:11:23;;;;;;;5.93;3.42;;;6.20;99.90;;;;;;4983342;28;20015;-78
2021/12/04 09:13:49;;;;;;;5.07;2.90;;;6.30;99.90;;;;;;4982093;28;20034;-77
2021/12/04 09:16:17;;;;;;;6.82;3.38;;;6.30;99.90;;;;;;4964829;28;20059;-79
2021/12/04 09:18:43;;;;;;;7.47;3.22;;;6.40;99.90;;;;;;4981419;28;20034;-78
2021/12/04 09:21:10;;;;;;;6.38;3.13;;;6.40;99.90;;;;;;4980680;28;20057;-77
2021/12/04 09:23:40;;;;;;;5.40;3.10;;;6.50;99.90;;;;;;4958333;28;20027;-79
2021/12/04 09:26:12;;;;;;;6.15;2.72;;;6.60;99.90;;;;;;4963207;28;20027;-76
2021/12/04 09:28:53;;;;;;;5.22;2.60;;;6.50;99.90;;;;;;4972339;28;20047;-78
2021/12/04 09:31:41;;;;;;;5.00;2.45;;;6.60;99.90;;;;;;4980765;28;20355;-76
2021/12/04 10:00:02;;;;;;;4.93;2.67;;;6.90;99.90;;;;;;4968919;28;20027;-76
2021/12/04 10:16:15;;;;;;;5.93;2.90;;;7.30;99.90;;;;;;4979292;28;20133;-79
2021/12/04 10:21:52;;;;;;;7.28;3.25;;;7.70;99.90;;;;;;4981310;28;20474;-78
2021/12/04 10:24:34;;;;;;;5.70;3.10;;;7.80;99.90;;;;;;4982293;28;20117;-76
2021/12/04 10:33:14;;;;;;;5.57;3.28;;;8.40;99.90;;;;;;4961276;28;20055;-78
2021/12/04 10:35:20;;;;;;;8.60;3.15;;;8.30;99.90;;;;;;4958871;28;20045;-79
2021/12/04 10:37:59;;;;;;;8.82;3.33;;;8.40;99.90;;;;;;4979447;28;20064;-77
2021/12/04 10:40:40;;;;;;;7.85;2.97;;;8.50;99.90;;;;;;4979259;28;20056;-77
2021/12/04 10:43:12;;;;;;;7.90;2.40;;;8.50;99.90;;;;;;4980388;28;20037;-79
2021/12/04 10:45:41;;;;;;;7.80;2.92;;;8.70;99.90;;;;;;4980014;28;20106;-78
2021/12/04 10:48:12;;;;;;;5.63;2.63;;;8.70;99.90;;;;;;4981407;28;20031;-79
2021/12/04 10:50:57;;;;;;;5.38;2.58;;;8.90;99.90;;;;;;4979818;28;20031;-77
2021/12/04 10:53:30;;;;;;;6.90;2.80;;;9.00;99.90;;;;;;4981410;28;20035;-79
2021/12/04 11:44:53;;;;;;;1.73;0.40;;;11.00;99.90;;;;;;4979168;28;20037;-80
2021/12/04 11:47:20;;;;;;;2.47;0.40;;;10.90;99.90;;;;;;4980602;28;20114;-78
2021/12/04 11:49:46;;;;;;;1.63;0.40;;;10.90;99.90;;;;;;4980456;28;20074;-78
2021/12/04 11:52:17;;;;;;;0.85;0.20;;;10.90;99.90;;;;;;4972577;28;20344;-80
2021/12/04 11:54:52;;;;;;;0.88;0.28;;;10.70;99.90;;;;;;4972959;28;20023;-77
2021/12/04 11:57:30;;;;;;;1.65;0.20;;;10.70;99.90;;;;;;4980484;28;20039;-78
2021/12/04 12:00:27;;;;;;;0.50;0.20;;;10.60;99.90;;;;;;4970312;28;20080;-78
2021/12/04 12:03:07;;;;;;;1.75;0.20;;;10.80;99.90;;;;;;4980086;28;20051;-79
2021/12/04 12:05:44;;;;;;;0.55;0.20;;;10.70;99.90;;;;;;4979420;28;20041;-78
2021/12/04 12:08:24;;;;;;;1.83;0.28;;;10.70;99.90;;;;;;4979495;28;20125;-79
2021/12/04 12:10:54;;;;;;;0.70;0.30;;;10.70;99.90;;;;;;4980440;28;20042;-79
2021/12/04 12:13:46;;;;;;;0.75;0.20;;;10.70;99.90;;;;;;4979747;28;20301;-79
2021/12/04 12:16:20;;;;;;;0.98;0.20;;;10.80;99.90;;;;;;4978953;28;20035;-79
2021/12/04 12:18:55;;;;;;;0.50;0.10;;;10.80;99.90;;;;;;4963201;28;20312;-79
2021/12/04 12:21:31;;;;;;;0.60;0.10;;;10.80;99.90;;;;;;4980244;28;20039;-78
2021/12/04 12:38:47;;;;;;;0.77;0.20;;;11.00;99.90;;;;;;4980037;28;20090;-79
2021/12/04 12:41:21;;;;;;;0.93;0.30;;;11.00;99.90;;;;;;4979924;28;20073;-77
2021/12/04 12:44:10;;;;;;;0.93;0.30;;;10.90;99.90;;;;;;4979634;28;20031;-77
2021/12/04 12:46:39;;;;;;;1.00;0.20;;;11.00;99.90;;;;;;4958923;28;20035;-78
2021/12/04 12:49:24;;;;;;;1.00;0.22;;;10.90;99.90;;;;;;4960698;28;20041;-79
2021/12/04 12:52:04;;;;;;;0.50;0.20;;;11.00;99.90;;;;;;4977230;28;20388;-77
2021/12/04 12:54:45;;;;;;;0.45;0.20;;;11.00;99.90;;;;;;4980458;28;20309;-77
2021/12/04 12:57:29;;;;;;;0.30;0.10;;;10.90;99.90;;;;;;4996076;28;20028;-78
2021/12/04 13:12:14;;;;;;;0.52;0.20;;;10.40;99.90;;;;;;4979505;28;20038;-76
2021/12/04 13:14:42;;;;;;;1.67;0.20;;;10.40;99.90;;;;;;4979620;28;20031;-78
2021/12/04 13:17:13;;;;;;;;;;;10.40;99.90;;;;;;4980203;28;20106;-78
2021/12/04 13:19:42;;;;;;;1.13;0.40;;;10.40;99.90;;;;;;4975384;28;19985;-79
2021/12/04 13:22:11;;;;;;;0.77;0.30;;;10.30;99.90;;;;;;4954230;28;20100;-78
2021/12/04 13:24:40;;;;;;;0.60;0.20;;;10.20;99.90;;;;;;4981738;28;20093;-79
2021/12/04 13:29:49;;;;;;;0.98;0.35;;;10.10;99.90;;;;;;4977348;28;20035;-79
2021/12/04 13:32:18;;;;;;;1.23;0.35;;;10.20;99.90;;;;;;4963111;28;20333;-77
2021/12/04 13:34:45;;;;;;;1.08;0.38;;;10.10;99.90;;;;;;4964898;28;20328;-79
2021/12/04 13:37:12;;;;;;;1.25;0.40;;;10.20;99.90;;;;;;4959772;28;20244;-78
2021/12/04 13:39:41;;;;;;;1.77;0.57;;;10.20;99.90;;;;;;4974039;28;20047;-78
2021/12/04 13:42:07;;;;;;;1.45;0.35;;;10.20;99.90;;;;;;4981876;28;20060;-78
2021/12/04 13:44:36;;;;;;;1.38;0.40;;;10.20;99.90;;;;;;4982382;28;20054;-77
2021/12/04 13:47:08;;;;;;;0.77;0.30;;;10.20;99.90;;;;;;4981032;28;20062;-76
2021/12/04 13:49:39;;;;;;;0.80;0.30;;;10.20;99.90;;;;;;4982898;28;20033;-77
2021/12/04 13:52:11;;;;;;;1.42;0.40;;;10.20;99.90;;;;;;4982629;28;20080;-78
2021/12/04 13:54:45;;;;;;;0.93;0.20;;;10.10;99.90;;;;;;4981387;28;20035;-79
2021/12/04 13:57:13;;;;;;;1.15;0.30;;;10.10;99.90;;;;;;4958180;28;20046;-78
2021/12/04 13:59:40;;;;;;;0.75;0.30;;;10.20;99.90;;;;;;4978880;28;20329;-79
2021/12/04 14:02:06;;;;;;;2.17;0.70;;;10.10;99.90;;;;;;4968195;28;20244;-78
2021/12/04 14:04:32;;;;;;;3.30;0.70;;;10.10;99.90;;;;;;4982232;28;20027;-79
2021/12/04 14:07:02;;;;;;;1.70;0.57;;;9.90;99.90;;;;;;4981634;28;20038;-78
2021/12/04 14:09:38;;;;;;;2.15;0.70;;;9.50;99.90;;;;;;4982253;28;20372;-78
2021/12/04 14:12:06;;;;;;;1.10;0.43;;;9.30;99.90;;;;;;4980833;28;20039;-78
2021/12/04 14:14:34;;;;;;;2.28;0.40;;;9.20;99.90;;;;;;4981539;28;20035;-78
2021/12/04 14:17:09;;;;;;;1.15;0.52;;;9.20;99.90;;;;;;4981288;28;20252;-77
2021/12/04 14:19:35;;;;;;;5.03;2.28;;;9.20;99.90;;;;;;4981213;28;20347;-78
2021/12/04 14:22:09;;;;;;;3.05;1.90;;;9.20;99.90;;;;;;4981619;28;20031;-79
2021/12/04 14:24:42;;;;;;;3.85;1.08;;;9.20;99.90;;;;;;4982311;28;20031;-79
2021/12/04 14:27:11;;;;;;;2.00;0.70;;;9.20;99.90;;;;;;4981154;28;20057;-78
2021/12/04 14:29:38;;;;;;;;;;;9.20;99.90;;;;;;4980646;28;20022;-78
2021/12/04 14:32:24;;;;;;;1.65;0.63;;;9.20;99.90;;;;;;4980471;28;19949;-78
2021/12/04 14:35:27;;;;;;;3.53;0.60;;;9.20;99.90;;;;;;4975287;28;20280;-78
2021/12/04 14:38:31;;;;;;;2.50;1.00;;;9.20;99.90;;;;;;4962502;29;20055;-78
2021/12/04 14:41:35;;;;;;;1.42;0.57;;;9.20;99.90;;;;;;4970899;28;20031;-77
2021/12/04 14:44:38;;;;;;;1.17;0.45;;;9.20;99.90;;;;;;4978884;28;20043;-77
2021/12/04 14:47:42;;;;;;;2.85;0.47;;;9.20;99.90;;;;;;4964404;28;20031;-79
2021/12/04 14:50:45;;;;;;;4.07;0.80;;;9.20;99.90;;;;;;4981067;28;20042;-76
2021/12/04 14:53:49;;;;;;;2.25;0.63;;;9.10;99.90;;;;;;4968661;28;20261;-76
2021/12/04 14:56:53;;;;;;;2.53;1.10;;;9.10;99.90;;;;;;4990141;28;20089;-77
2021/12/04 14:59:56;;;;;;;3.25;1.10;;;9.10;99.90;;;;;;4989093;28;20041;-78
2021/12/04 15:03:00;;;;;;;1.75;0.55;;;9.10;99.90;;;;;;4981814;28;20046;-78
2021/12/04 15:06:05;;;;;;;1.35;0.55;;;9.20;99.90;;;;;;4981291;28;20027;-79
2021/12/04 15:09:09;;;;;;;1.63;0.50;;;9.20;99.90;;;;;;4982412;28;20098;-79
2021/12/04 15:12:13;;;;;;;1.27;0.52;;;9.20;99.90;;;;;;4972485;28;20035;-78
2021/12/04 15:15:16;;;;;;;3.35;1.10;;;9.10;99.90;;;;;;4977865;28;20094;-79
2021/12/04 15:18:23;;;;;;;2.92;1.42;;;9.10;99.90;;;;;;4981387;28;20110;-79
2021/12/04 15:21:27;;;;;;;4.13;0.88;;;9.00;99.90;;;;;;4963930;28;20035;-78
2021/12/04 15:24:32;;;;;;;2.20;0.73;;;8.90;99.90;;;;;;4969042;28;20031;-78
2021/12/04 15:27:36;;;;;;;1.50;0.70;;;8.90;99.90;;;;;;4960302;28;20023;-77
2021/12/04 15:30:38;;;;;;;2.05;0.77;;;8.80;99.90;;;;;;4968928;28;20105;-79
2021/12/04 15:33:05;;;;;;;1.27;0.52;;;8.90;99.90;;;;;;4980352;28;20391;-77
2021/12/04 15:35:38;;;;;;;3.40;1.00;;;8.90;99.90;;;;;;4969627;28;20094;-77
2021/12/04 15:43:27;;;;;;;1.60;0.63;;;8.90;99.90;;;;;;4979784;28;20023;-78
2021/12/04 15:49:31;;;;;;;2.80;1.55;;;9.00;99.90;;;;;;4981119;28;20309;-80
2021/12/04 15:54:59;;;;;;;1.83;0.70;;;9.00;99.90;;;;;;4981032;28;20331;-79
2021/12/04 15:57:25;;;;;;;1.80;0.55;;;8.90;99.90;;;;;;4972121;28;20042;-79
2021/12/04 15:59:52;;;;;;;1.92;0.73;;;9.20;99.90;;;;;;4961038;28;20317;-79
2021/12/04 16:02:22;;;;;;;1.98;0.60;;;9.20;99.90;;;;;;4960779;28;20325;-77
2021/12/04 16:04:50;;;;;;;1.92;0.70;;;9.20;99.90;;;;;;4980008;28;20313;-77
2021/12/04 16:07:27;;;;;;;2.28;0.70;;;9.10;99.90;;;;;;4978745;28;20076;-80
2021/12/04 16:09:54;;;;;;;1.95;0.80;;;9.00;99.90;;;;;;4965432;28;20030;-79
2021/12/04 16:12:22;;;;;;;3.35;0.80;;;9.00;99.90;;;;;;4979635;28;20153;-78
2021/12/04 16:14:54;;;;;;;1.83;0.60;;;9.00;99.90;;;;;;4980469;28;20073;-79
2021/12/04 16:17:21;;;;;;;1.88;0.80;;;9.00;99.90;;;;;;4980614;28;20038;-79
2021/12/04 16:19:51;;;;;;;2.70;1.58;;;9.00;99.90;;;;;;4979982;28;20089;-78
2021/12/04 16:22:18;;;;;;;3.45;1.08;;;9.00;99.90;;;;;;4978657;28;20043;-77
2021/12/04 16:24:49;;;;;;;2.58;1.67;;;8.90;99.90;;;;;;4980167;28;20216;-78
2021/12/04 16:30:12;;;;;;;1.80;0.80;;;8.90;99.90;;;;;;4960024;28;20237;-78
2021/12/04 16:32:56;;;;;;;2.42;1.00;;;8.90;99.90;;;;;;4974882;28;20051;-78
2021/12/04 16:38:08;;;;;;;2.92;1.17;;;8.60;99.90;;;;;;4979051;28;20019;-78
2021/12/04 16:40:44;;;;;;;1.85;0.70;;;8.40;99.90;;;;;;4980555;28;20061;-77
2021/12/04 16:43:17;;;;;;;3.97;1.98;;;8.30;99.90;;;;;;4966528;28;20141;-77
2021/12/04 16:45:48;;;;;;;2.80;1.50;;;8.20;99.90;;;;;;4976618;28;20098;-78